sensor_id;sensor_type;location;lat;lon;timestamp;temperature;humidity
36450;DHT22;22475;51.390;7.180;2023-08-12T00:01:00;20.10;94.80
36450;DHT22;22475;51.390;7.180;2023-08-12T00:03:26;20.00;94.70
36450;DHT22;22475;51.390;7.180;2023-08-12T00:05:53;20.10;94.80
36450;DHT22;22475;51.390;7.180;2023-08-12T00:08:21;20.00;94.70
36450;DHT22;22475;51.390;7.180;2023-08-12T00:10:48;20.10;94.80
36450;DHT22;22475;51.390;7.180;2023-08-12T00:13:16;20.10;94.80
36450;DHT22;22475;51.390;7.180;2023-08-12T00:15:43;20.10;94.80
36450;DHT22;22475;51.390;7.180;2023-08-12T00:18:09;20.10;94.80
36450;DHT22;22475;51.390;7.180;2023-08-12T00:20:36;20.10;94.80
36450;DHT22;22475;51.390;7.180;2023-08-12T00:23:03;20.10;94.80
36450;DHT22;22475;51.390;7.180;2023-08-12T00:25:30;20.10;94.80
36450;DHT22;22475;51.390;7.180;2023-08-12T00:27:56;20.10;94.80
36450;DHT22;22475;51.390;7.180;2023-08-12T00:30:24;20.10;94.80
36450;DHT22;22475;51.390;7.180;2023-08-12T00:32:51;20.10;94.80
36450;DHT22;22475;51.390;7.180;2023-08-12T00:35:17;20.10;94.80
36450;DHT22;22475;51.390;7.180;2023-08-12T00:37:44;20.10;94.80
36450;DHT22;22475;51.390;7.180;2023-08-12T00:40:12;20.10;94.80
36450;DHT22;22475;51.390;7.180;2023-08-12T00:42:39;20.10;94.80
36450;DHT22;22475;51.390;7.180;2023-08-12T00:45:06;20.10;94.80
36450;DHT22;22475;51.390;7.180;2023-08-12T00:47:36;20.10;94.80
36450;DHT22;22475;51.390;7.180;2023-08-12T00:50:04;20.10;94.80
36450;DHT22;22475;51.390;7.180;2023-08-12T00:52:30;20.10;94.80
36450;DHT22;22475;51.390;7.180;2023-08-12T00:54:57;20.10;94.80
36450;DHT22;22475;51.390;7.180;2023-08-12T00:57:24;20.10;94.80
36450;DHT22;22475;51.390;7.180;2023-08-12T00:59:50;20.10;94.80
36450;DHT22;22475;51.390;7.180;2023-08-12T01:02:17;20.10;94.80
36450;DHT22;22475;51.390;7.180;2023-08-12T01:04:45;20.10;94.80
36450;DHT22;22475;51.390;7.180;2023-08-12T01:07:11;20.10;94.80
36450;DHT22;22475;51.390;7.180;2023-08-12T01:09:38;20.10;94.80
36450;DHT22;22475;51.390;7.180;2023-08-12T01:12:06;20.10;94.80
36450;DHT22;22475;51.390;7.180;2023-08-12T01:14:35;20.10;95.10
36450;DHT22;22475;51.390;7.180;2023-08-12T01:17:04;20.10;94.80
36450;DHT22;22475;51.390;7.180;2023-08-12T01:19:33;20.10;94.80
36450;DHT22;22475;51.390;7.180;2023-08-12T01:22:01;20.10;94.80
36450;DHT22;22475;51.390;7.180;2023-08-12T01:24:34;20.10;94.80
36450;DHT22;22475;51.390;7.180;2023-08-12T01:27:01;20.10;94.80
36450;DHT22;22475;51.390;7.180;2023-08-12T01:29:28;20.10;94.80
36450;DHT22;22475;51.390;7.180;2023-08-12T01:31:55;20.10;94.80
36450;DHT22;22475;51.390;7.180;2023-08-12T01:34:25;20.10;94.80
36450;DHT22;22475;51.390;7.180;2023-08-12T01:36:54;20.10;94.80
36450;DHT22;22475;51.390;7.180;2023-08-12T01:39:21;20.10;94.80
36450;DHT22;22475;51.390;7.180;2023-08-12T01:41:50;20.10;94.80
36450;DHT22;22475;51.390;7.180;2023-08-12T01:44:17;20.10;94.80
36450;DHT22;22475;51.390;7.180;2023-08-12T01:46:44;20.10;94.80
36450;DHT22;22475;51.390;7.180;2023-08-12T01:49:10;20.10;94.80
36450;DHT22;22475;51.390;7.180;2023-08-12T01:51:37;20.10;95.10
36450;DHT22;22475;51.390;7.180;2023-08-12T01:54:04;20.10;94.80
36450;DHT22;22475;51.390;7.180;2023-08-12T01:56:30;20.10;94.80
36450;DHT22;22475;51.390;7.180;2023-08-12T01:58:58;20.10;94.80
36450;DHT22;22475;51.390;7.180;2023-08-12T02:01:25;20.10;94.80
36450;DHT22;22475;51.390;7.180;2023-08-12T02:03:51;20.10;94.80
36450;DHT22;22475;51.390;7.180;2023-08-12T02:06:18;20.10;94.80
36450;DHT22;22475;51.390;7.180;2023-08-12T02:08:45;20.10;94.80
36450;DHT22;22475;51.390;7.180;2023-08-12T02:11:11;20.10;94.80
36450;DHT22;22475;51.390;7.180;2023-08-12T02:13:38;20.10;94.80
36450;DHT22;22475;51.390;7.180;2023-08-12T02:16:06;20.10;94.80
36450;DHT22;22475;51.390;7.180;2023-08-12T02:18:32;20.10;94.80
36450;DHT22;22475;51.390;7.180;2023-08-12T02:20:59;20.10;94.80
36450;DHT22;22475;51.390;7.180;2023-08-12T02:23:26;20.10;94.80
36450;DHT22;22475;51.390;7.180;2023-08-12T02:25:52;20.10;95.10
36450;DHT22;22475;51.390;7.180;2023-08-12T02:28:19;20.10;94.80
36450;DHT22;22475;51.390;7.180;2023-08-12T02:30:46;20.10;94.80
36450;DHT22;22475;51.390;7.180;2023-08-12T02:33:14;20.10;94.80
36450;DHT22;22475;51.390;7.180;2023-08-12T02:35:40;20.10;94.80
36450;DHT22;22475;51.390;7.180;2023-08-12T02:38:08;20.20;94.80
36450;DHT22;22475;51.390;7.180;2023-08-12T02:40:34;20.10;94.80
36450;DHT22;22475;51.390;7.180;2023-08-12T02:43:01;20.10;94.80
36450;DHT22;22475;51.390;7.180;2023-08-12T02:45:27;20.10;94.80
36450;DHT22;22475;51.390;7.180;2023-08-12T02:47:56;20.10;94.80
36450;DHT22;22475;51.390;7.180;2023-08-12T02:50:24;20.10;94.80
36450;DHT22;22475;51.390;7.180;2023-08-12T02:52:51;20.10;94.80
36450;DHT22;22475;51.390;7.180;2023-08-12T02:55:17;20.10;94.80
36450;DHT22;22475;51.390;7.180;2023-08-12T02:57:44;20.10;94.80
36450;DHT22;22475;51.390;7.180;2023-08-12T03:00:11;20.10;94.80
36450;DHT22;22475;51.390;7.180;2023-08-12T03:02:39;20.10;94.80
36450;DHT22;22475;51.390;7.180;2023-08-12T03:05:08;20.10;94.80
36450;DHT22;22475;51.390;7.180;2023-08-12T03:07:36;20.10;94.80
36450;DHT22;22475;51.390;7.180;2023-08-12T03:10:02;20.10;94.80
36450;DHT22;22475;51.390;7.180;2023-08-12T03:12:29;20.10;94.80
36450;DHT22;22475;51.390;7.180;2023-08-12T03:14:56;20.10;94.80
36450;DHT22;22475;51.390;7.180;2023-08-12T03:17:22;20.10;94.80
36450;DHT22;22475;51.390;7.180;2023-08-12T03:19:49;20.10;94.80
36450;DHT22;22475;51.390;7.180;2023-08-12T03:22:16;20.10;94.80
36450;DHT22;22475;51.390;7.180;2023-08-12T03:24:44;20.10;94.80
36450;DHT22;22475;51.390;7.180;2023-08-12T03:27:11;20.20;94.80
36450;DHT22;22475;51.390;7.180;2023-08-12T03:29:37;20.10;94.80
36450;DHT22;22475;51.390;7.180;2023-08-12T03:32:04;20.10;94.80
36450;DHT22;22475;51.390;7.180;2023-08-12T03:34:30;20.10;94.80
36450;DHT22;22475;51.390;7.180;2023-08-12T03:36:57;20.10;94.80
36450;DHT22;22475;51.390;7.180;2023-08-12T03:39:23;20.10;94.80
36450;DHT22;22475;51.390;7.180;2023-08-12T03:41:51;20.10;94.80
36450;DHT22;22475;51.390;7.180;2023-08-12T03:44:18;20.10;94.80
36450;DHT22;22475;51.390;7.180;2023-08-12T03:46:45;20.20;94.80
36450;DHT22;22475;51.390;7.180;2023-08-12T03:49:11;20.20;94.80
36450;DHT22;22475;51.390;7.180;2023-08-12T03:51:38;20.20;94.80
36450;DHT22;22475;51.390;7.180;2023-08-12T03:54:05;20.20;94.80
36450;DHT22;22475;51.390;7.180;2023-08-12T03:56:31;20.10;94.80
36450;DHT22;22475;51.390;7.180;2023-08-12T03:58:59;20.10;94.80
36450;DHT22;22475;51.390;7.180;2023-08-12T04:01:26;20.20;94.80
36450;DHT22;22475;51.390;7.180;2023-08-12T04:03:52;20.20;94.80
36450;DHT22;22475;51.390;7.180;2023-08-12T04:06:19;20.10;94.80
36450;DHT22;22475;51.390;7.180;2023-08-12T04:08:45;20.20;94.80
36450;DHT22;22475;51.390;7.180;2023-08-12T04:11:12;20.20;94.80
36450;DHT22;22475;51.390;7.180;2023-08-12T04:13:39;20.20;94.80
36450;DHT22;22475;51.390;7.180;2023-08-12T04:16:07;20.20;94.80
36450;DHT22;22475;51.390;7.180;2023-08-12T04:18:33;20.20;94.80
36450;DHT22;22475;51.390;7.180;2023-08-12T04:21:00;20.20;94.80
36450;DHT22;22475;51.390;7.180;2023-08-12T04:23:26;20.20;94.80
36450;DHT22;22475;51.390;7.180;2023-08-12T04:25:53;20.10;94.80
36450;DHT22;22475;51.390;7.180;2023-08-12T04:28:20;20.20;94.80
36450;DHT22;22475;51.390;7.180;2023-08-12T04:30:47;20.20;94.80
36450;DHT22;22475;51.390;7.180;2023-08-12T04:33:15;20.20;94.80
36450;DHT22;22475;51.390;7.180;2023-08-12T04:35:41;20.20;95.20
36450;DHT22;22475;51.390;7.180;2023-08-12T04:38:08;20.20;94.80
36450;DHT22;22475;51.390;7.180;2023-08-12T04:40:37;20.20;94.80
36450;DHT22;22475;51.390;7.180;2023-08-12T04:43:04;20.20;94.80
36450;DHT22;22475;51.390;7.180;2023-08-12T04:45:31;20.20;94.80
36450;DHT22;22475;51.390;7.180;2023-08-12T04:47:58;20.20;94.80
36450;DHT22;22475;51.390;7.180;2023-08-12T04:50:27;20.20;94.80
36450;DHT22;22475;51.390;7.180;2023-08-12T04:52:55;20.20;94.80
36450;DHT22;22475;51.390;7.180;2023-08-12T04:55:22;20.20;94.90
36450;DHT22;22475;51.390;7.180;2023-08-12T04:57:48;20.20;94.80
36450;DHT22;22475;51.390;7.180;2023-08-12T05:00:15;20.20;94.80
36450;DHT22;22475;51.390;7.180;2023-08-12T05:02:42;20.20;94.80
36450;DHT22;22475;51.390;7.180;2023-08-12T05:05:09;20.20;94.80
36450;DHT22;22475;51.390;7.180;2023-08-12T05:07:37;20.20;94.90
36450;DHT22;22475;51.390;7.180;2023-08-12T05:10:04;20.20;95.20
36450;DHT22;22475;51.390;7.180;2023-08-12T05:12:31;20.20;94.80
36450;DHT22;22475;51.390;7.180;2023-08-12T05:14:57;20.20;94.80
36450;DHT22;22475;51.390;7.180;2023-08-12T05:17:24;20.20;94.80
36450;DHT22;22475;51.390;7.180;2023-08-12T05:19:50;20.20;94.80
36450;DHT22;22475;51.390;7.180;2023-08-12T05:22:17;20.20;94.80
36450;DHT22;22475;51.390;7.180;2023-08-12T05:24:45;20.20;94.90
36450;DHT22;22475;51.390;7.180;2023-08-12T05:27:11;20.20;94.90
36450;DHT22;22475;51.390;7.180;2023-08-12T05:29:38;20.20;95.20
36450;DHT22;22475;51.390;7.180;2023-08-12T05:32:05;20.20;94.80
36450;DHT22;22475;51.390;7.180;2023-08-12T05:34:31;20.20;94.80
36450;DHT22;22475;51.390;7.180;2023-08-12T05:36:58;20.20;94.80
36450;DHT22;22475;51.390;7.180;2023-08-12T05:39:24;20.20;94.90
36450;DHT22;22475;51.390;7.180;2023-08-12T05:41:52;20.20;94.90
36450;DHT22;22475;51.390;7.180;2023-08-12T05:44:19;20.20;94.90
36450;DHT22;22475;51.390;7.180;2023-08-12T05:46:45;20.20;94.90
36450;DHT22;22475;51.390;7.180;2023-08-12T05:49:12;20.20;94.80
36450;DHT22;22475;51.390;7.180;2023-08-12T05:51:39;20.20;94.90
36450;DHT22;22475;51.390;7.180;2023-08-12T05:54:06;20.20;94.90
36450;DHT22;22475;51.390;7.180;2023-08-12T05:56:33;20.20;94.90
36450;DHT22;22475;51.390;7.180;2023-08-12T05:59:01;20.20;94.90
36450;DHT22;22475;51.390;7.180;2023-08-12T06:01:27;20.20;94.90
36450;DHT22;22475;51.390;7.180;2023-08-12T06:03:54;20.20;94.90
36450;DHT22;22475;51.390;7.180;2023-08-12T06:06:20;20.20;94.90
36450;DHT22;22475;51.390;7.180;2023-08-12T06:08:48;20.20;94.90
36450;DHT22;22475;51.390;7.180;2023-08-12T06:11:14;20.20;94.90
36450;DHT22;22475;51.390;7.180;2023-08-12T06:13:41;20.20;94.90
36450;DHT22;22475;51.390;7.180;2023-08-12T06:16:09;20.20;94.80
36450;DHT22;22475;51.390;7.180;2023-08-12T06:18:35;20.20;94.90
36450;DHT22;22475;51.390;7.180;2023-08-12T06:21:02;20.20;94.90
36450;DHT22;22475;51.390;7.180;2023-08-12T06:23:28;20.20;94.90
36450;DHT22;22475;51.390;7.180;2023-08-12T06:25:56;20.20;94.90
36450;DHT22;22475;51.390;7.180;2023-08-12T06:28:22;20.20;94.90
36450;DHT22;22475;51.390;7.180;2023-08-12T06:30:49;20.20;94.90
36450;DHT22;22475;51.390;7.180;2023-08-12T06:33:17;20.20;94.90
36450;DHT22;22475;51.390;7.180;2023-08-12T06:35:44;20.20;94.90
36450;DHT22;22475;51.390;7.180;2023-08-12T06:38:14;20.20;94.90
36450;DHT22;22475;51.390;7.180;2023-08-12T06:40:40;20.20;94.90
36450;DHT22;22475;51.390;7.180;2023-08-12T06:43:07;20.20;94.90
36450;DHT22;22475;51.390;7.180;2023-08-12T06:45:34;20.20;94.90
36450;DHT22;22475;51.390;7.180;2023-08-12T06:48:00;20.30;94.90
36450;DHT22;22475;51.390;7.180;2023-08-12T06:50:29;20.20;94.90
36450;DHT22;22475;51.390;7.180;2023-08-12T06:52:58;20.20;94.90
36450;DHT22;22475;51.390;7.180;2023-08-12T06:55:25;20.20;94.90
36450;DHT22;22475;51.390;7.180;2023-08-12T06:57:51;20.20;94.90
36450;DHT22;22475;51.390;7.180;2023-08-12T07:00:18;20.20;94.90
36450;DHT22;22475;51.390;7.180;2023-08-12T07:02:44;20.20;94.90
36450;DHT22;22475;51.390;7.180;2023-08-12T07:05:11;20.20;95.10
36450;DHT22;22475;51.390;7.180;2023-08-12T07:07:39;20.20;94.90
36450;DHT22;22475;51.390;7.180;2023-08-12T07:10:06;20.20;94.90
36450;DHT22;22475;51.390;7.180;2023-08-12T07:12:33;20.20;94.90
36450;DHT22;22475;51.390;7.180;2023-08-12T07:14:59;20.30;94.90
36450;DHT22;22475;51.390;7.180;2023-08-12T07:17:26;20.20;94.90
36450;DHT22;22475;51.390;7.180;2023-08-12T07:19:52;20.20;94.90
36450;DHT22;22475;51.390;7.180;2023-08-12T07:22:19;20.20;94.90
36450;DHT22;22475;51.390;7.180;2023-08-12T07:24:47;20.20;94.90
36450;DHT22;22475;51.390;7.180;2023-08-12T07:27:13;20.20;94.90
36450;DHT22;22475;51.390;7.180;2023-08-12T07:29:40;20.20;94.90
36450;DHT22;22475;51.390;7.180;2023-08-12T07:32:07;20.20;94.90
36450;DHT22;22475;51.390;7.180;2023-08-12T07:34:33;20.20;94.90
36450;DHT22;22475;51.390;7.180;2023-08-12T07:37:00;20.20;94.90
36450;DHT22;22475;51.390;7.180;2023-08-12T07:39:26;20.20;94.90
36450;DHT22;22475;51.390;7.180;2023-08-12T07:41:54;20.20;94.90
36450;DHT22;22475;51.390;7.180;2023-08-12T07:44:21;20.20;94.90
36450;DHT22;22475;51.390;7.180;2023-08-12T07:46:47;20.20;94.90
36450;DHT22;22475;51.390;7.180;2023-08-12T07:49:15;20.30;94.90
36450;DHT22;22475;51.390;7.180;2023-08-12T07:51:42;20.20;94.90
36450;DHT22;22475;51.390;7.180;2023-08-12T07:54:08;20.20;95.20
36450;DHT22;22475;51.390;7.180;2023-08-12T07:56:35;20.30;94.90
36450;DHT22;22475;51.390;7.180;2023-08-12T07:59:03;20.20;94.90
36450;DHT22;22475;51.390;7.180;2023-08-12T08:01:30;20.30;94.90
36450;DHT22;22475;51.390;7.180;2023-08-12T08:03:56;20.20;94.90
36450;DHT22;22475;51.390;7.180;2023-08-12T08:06:23;20.30;94.90
36450;DHT22;22475;51.390;7.180;2023-08-12T08:08:50;20.20;94.90
36450;DHT22;22475;51.390;7.180;2023-08-12T08:11:16;20.20;94.90
36450;DHT22;22475;51.390;7.180;2023-08-12T08:13:43;20.30;94.90
36450;DHT22;22475;51.390;7.180;2023-08-12T08:16:11;20.30;94.90
36450;DHT22;22475;51.390;7.180;2023-08-12T08:18:37;20.20;94.90
36450;DHT22;22475;51.390;7.180;2023-08-12T08:21:04;20.30;94.90
36450;DHT22;22475;51.390;7.180;2023-08-12T08:23:30;20.30;94.90
36450;DHT22;22475;51.390;7.180;2023-08-12T08:25:57;20.30;94.90
36450;DHT22;22475;51.390;7.180;2023-08-12T08:28:23;20.30;94.90
36450;DHT22;22475;51.390;7.180;2023-08-12T08:30:50;20.30;94.90
36450;DHT22;22475;51.390;7.180;2023-08-12T08:33:18;20.30;94.90
36450;DHT22;22475;51.390;7.180;2023-08-12T08:35:44;20.30;94.90
36450;DHT22;22475;51.390;7.180;2023-08-12T08:38:11;20.30;94.90
36450;DHT22;22475;51.390;7.180;2023-08-12T08:40:38;20.30;94.90
36450;DHT22;22475;51.390;7.180;2023-08-12T08:43:04;20.30;94.90
36450;DHT22;22475;51.390;7.180;2023-08-12T08:45:33;20.30;94.90
36450;DHT22;22475;51.390;7.180;2023-08-12T08:48:00;20.30;94.90
36450;DHT22;22475;51.390;7.180;2023-08-12T08:50:29;20.30;94.90
36450;DHT22;22475;51.390;7.180;2023-08-12T08:52:56;20.30;94.90
36450;DHT22;22475;51.390;7.180;2023-08-12T08:55:23;20.30;94.90
36450;DHT22;22475;51.390;7.180;2023-08-12T08:59:12;20.30;94.60
36450;DHT22;22475;51.390;7.180;2023-08-12T09:01:39;20.30;95.00
36450;DHT22;22475;51.390;7.180;2023-08-12T09:04:07;20.30;95.10
36450;DHT22;22475;51.390;7.180;2023-08-12T09:06:36;20.20;95.20
36450;DHT22;22475;51.390;7.180;2023-08-12T09:09:06;20.20;95.30
36450;DHT22;22475;51.390;7.180;2023-08-12T09:11:36;20.20;95.40
36450;DHT22;22475;51.390;7.180;2023-08-12T09:14:04;20.20;95.50
36450;DHT22;22475;51.390;7.180;2023-08-12T09:16:33;20.20;95.50
36450;DHT22;22475;51.390;7.180;2023-08-12T09:19:00;20.20;95.60
36450;DHT22;22475;51.390;7.180;2023-08-12T09:21:27;20.20;95.60
36450;DHT22;22475;51.390;7.180;2023-08-12T09:23:55;20.20;95.70
36450;DHT22;22475;51.390;7.180;2023-08-12T09:26:21;20.10;95.70
36450;DHT22;22475;51.390;7.180;2023-08-12T09:28:48;20.20;95.70
36450;DHT22;22475;51.390;7.180;2023-08-12T09:31:23;20.20;95.70
36450;DHT22;22475;51.390;7.180;2023-08-12T09:33:52;20.10;95.70
36450;DHT22;22475;51.390;7.180;2023-08-12T09:36:21;20.10;95.70
36450;DHT22;22475;51.390;7.180;2023-08-12T09:38:47;20.10;95.70
36450;DHT22;22475;51.390;7.180;2023-08-12T09:41:14;20.10;95.80
36450;DHT22;22475;51.390;7.180;2023-08-12T09:43:41;20.10;95.80
36450;DHT22;22475;51.390;7.180;2023-08-12T09:46:11;20.10;95.80
36450;DHT22;22475;51.390;7.180;2023-08-12T09:48:39;20.20;95.80
36450;DHT22;22475;51.390;7.180;2023-08-12T09:51:07;20.10;95.80
36450;DHT22;22475;51.390;7.180;2023-08-12T09:53:34;20.10;95.80
36450;DHT22;22475;51.390;7.180;2023-08-12T09:56:06;20.10;95.80
36450;DHT22;22475;51.390;7.180;2023-08-12T09:58:34;20.10;95.90
36450;DHT22;22475;51.390;7.180;2023-08-12T10:01:03;20.10;95.90
36450;DHT22;22475;51.390;7.180;2023-08-12T10:03:30;20.20;96.30
36450;DHT22;22475;51.390;7.180;2023-08-12T10:06:00;20.10;95.90
36450;DHT22;22475;51.390;7.180;2023-08-12T10:08:29;20.20;96.30
36450;DHT22;22475;51.390;7.180;2023-08-12T10:10:55;20.10;95.90
36450;DHT22;22475;51.390;7.180;2023-08-12T10:13:22;20.10;95.90
36450;DHT22;22475;51.390;7.180;2023-08-12T10:15:50;20.10;95.90
36450;DHT22;22475;51.390;7.180;2023-08-12T10:18:18;20.20;96.00
36450;DHT22;22475;51.390;7.180;2023-08-12T10:20:45;20.10;96.00
36450;DHT22;22475;51.390;7.180;2023-08-12T10:23:15;20.10;96.00
36450;DHT22;22475;51.390;7.180;2023-08-12T10:25:44;20.20;96.00
36450;DHT22;22475;51.390;7.180;2023-08-12T10:28:12;20.20;96.00
36450;DHT22;22475;51.390;7.180;2023-08-12T10:30:40;20.20;96.00
36450;DHT22;22475;51.390;7.180;2023-08-12T10:33:10;20.10;96.00
36450;DHT22;22475;51.390;7.180;2023-08-12T10:35:41;20.10;96.00
36450;DHT22;22475;51.390;7.180;2023-08-12T10:38:08;20.20;96.00
36450;DHT22;22475;51.390;7.180;2023-08-12T10:40:35;20.20;96.00
36450;DHT22;22475;51.390;7.180;2023-08-12T10:43:04;20.20;96.00
36450;DHT22;22475;51.390;7.180;2023-08-12T10:45:42;20.20;96.00
36450;DHT22;22475;51.390;7.180;2023-08-12T10:48:20;20.20;96.10
36450;DHT22;22475;51.390;7.180;2023-08-12T10:50:49;20.20;96.10
36450;DHT22;22475;51.390;7.180;2023-08-12T10:53:26;20.20;96.10
36450;DHT22;22475;51.390;7.180;2023-08-12T10:55:57;20.20;96.10
36450;DHT22;22475;51.390;7.180;2023-08-12T10:58:26;20.20;96.10
36450;DHT22;22475;51.390;7.180;2023-08-12T11:00:54;20.20;96.10
36450;DHT22;22475;51.390;7.180;2023-08-12T11:03:21;20.20;96.10
36450;DHT22;22475;51.390;7.180;2023-08-12T11:05:47;20.20;96.10
36450;DHT22;22475;51.390;7.180;2023-08-12T11:08:14;20.20;96.10
36450;DHT22;22475;51.390;7.180;2023-08-12T11:10:41;20.20;96.10
36450;DHT22;22475;51.390;7.180;2023-08-12T11:13:09;20.20;96.10
36450;DHT22;22475;51.390;7.180;2023-08-12T11:15:40;20.20;96.10
36450;DHT22;22475;51.390;7.180;2023-08-12T11:18:09;20.20;96.10
36450;DHT22;22475;51.390;7.180;2023-08-12T11:20:37;20.20;96.10
36450;DHT22;22475;51.390;7.180;2023-08-12T11:23:04;20.20;96.10
36450;DHT22;22475;51.390;7.180;2023-08-12T11:25:33;20.20;96.10
36450;DHT22;22475;51.390;7.180;2023-08-12T11:28:00;20.20;96.20
36450;DHT22;22475;51.390;7.180;2023-08-12T11:30:27;20.20;96.20
36450;DHT22;22475;51.390;7.180;2023-08-12T11:32:56;20.20;96.20
36450;DHT22;22475;51.390;7.180;2023-08-12T11:35:24;20.20;96.20
36450;DHT22;22475;51.390;7.180;2023-08-12T11:37:52;20.20;96.20
36450;DHT22;22475;51.390;7.180;2023-08-12T11:40:21;20.20;96.20
36450;DHT22;22475;51.390;7.180;2023-08-12T11:42:49;20.20;96.20
36450;DHT22;22475;51.390;7.180;2023-08-12T11:45:18;20.20;96.20
36450;DHT22;22475;51.390;7.180;2023-08-12T11:47:45;20.20;96.20
36450;DHT22;22475;51.390;7.180;2023-08-12T11:50:20;20.20;96.60
36450;DHT22;22475;51.390;7.180;2023-08-12T11:52:47;20.20;96.20
36450;DHT22;22475;51.390;7.180;2023-08-12T11:55:14;20.20;96.20
36450;DHT22;22475;51.390;7.180;2023-08-12T11:57:42;20.20;96.20
36450;DHT22;22475;51.390;7.180;2023-08-12T12:00:11;20.20;96.20
36450;DHT22;22475;51.390;7.180;2023-08-12T12:02:41;20.20;96.20
36450;DHT22;22475;51.390;7.180;2023-08-12T12:05:09;20.20;96.20
36450;DHT22;22475;51.390;7.180;2023-08-12T12:07:39;20.20;96.20
36450;DHT22;22475;51.390;7.180;2023-08-12T12:10:06;20.20;96.30
36450;DHT22;22475;51.390;7.180;2023-08-12T12:12:33;20.20;96.20
36450;DHT22;22475;51.390;7.180;2023-08-12T12:15:01;20.20;96.20
36450;DHT22;22475;51.390;7.180;2023-08-12T12:17:28;20.20;96.20
36450;DHT22;22475;51.390;7.180;2023-08-12T12:19:55;20.20;96.30
36450;DHT22;22475;51.390;7.180;2023-08-12T12:22:26;20.20;96.30
36450;DHT22;22475;51.390;7.180;2023-08-12T12:24:58;20.20;96.30
36450;DHT22;22475;51.390;7.180;2023-08-12T12:27:25;20.20;96.30
36450;DHT22;22475;51.390;7.180;2023-08-12T12:29:51;20.20;96.30
36450;DHT22;22475;51.390;7.180;2023-08-12T12:32:18;20.20;96.30
36450;DHT22;22475;51.390;7.180;2023-08-12T12:34:45;20.20;96.30
36450;DHT22;22475;51.390;7.180;2023-08-12T12:37:12;20.20;96.30
36450;DHT22;22475;51.390;7.180;2023-08-12T12:39:39;20.20;96.30
36450;DHT22;22475;51.390;7.180;2023-08-12T12:42:07;20.20;96.30
36450;DHT22;22475;51.390;7.180;2023-08-12T12:44:34;20.20;96.30
36450;DHT22;22475;51.390;7.180;2023-08-12T12:47:02;20.20;96.30
36450;DHT22;22475;51.390;7.180;2023-08-12T12:49:29;20.30;96.40
36450;DHT22;22475;51.390;7.180;2023-08-12T12:51:56;20.30;96.40
36450;DHT22;22475;51.390;7.180;2023-08-12T12:54:23;20.30;96.40
36450;DHT22;22475;51.390;7.180;2023-08-12T12:56:49;20.30;96.40
36450;DHT22;22475;51.390;7.180;2023-08-12T12:59:17;20.30;96.70
36450;DHT22;22475;51.390;7.180;2023-08-12T13:01:44;20.30;96.40
36450;DHT22;22475;51.390;7.180;2023-08-12T13:04:11;20.30;96.40
36450;DHT22;22475;51.390;7.180;2023-08-12T13:06:38;20.30;96.40
36450;DHT22;22475;51.390;7.180;2023-08-12T13:09:05;20.20;96.40
36450;DHT22;22475;51.390;7.180;2023-08-12T13:11:32;20.30;96.40
36450;DHT22;22475;51.390;7.180;2023-08-12T13:14:00;20.30;96.40
36450;DHT22;22475;51.390;7.180;2023-08-12T13:16:29;20.20;96.40
36450;DHT22;22475;51.390;7.180;2023-08-12T13:18:55;20.30;96.40
36450;DHT22;22475;51.390;7.180;2023-08-12T13:21:23;20.30;96.40
36450;DHT22;22475;51.390;7.180;2023-08-12T13:23:50;20.30;96.40
36450;DHT22;22475;51.390;7.180;2023-08-12T13:26:17;20.30;96.40
36450;DHT22;22475;51.390;7.180;2023-08-12T13:28:44;20.30;96.40
36450;DHT22;22475;51.390;7.180;2023-08-12T13:31:11;20.30;96.40
36450;DHT22;22475;51.390;7.180;2023-08-12T13:33:39;20.30;96.50
36450;DHT22;22475;51.390;7.180;2023-08-12T13:36:06;20.30;96.50
36450;DHT22;22475;51.390;7.180;2023-08-12T13:38:32;20.30;96.50
36450;DHT22;22475;51.390;7.180;2023-08-12T13:40:59;20.30;96.50
36450;DHT22;22475;51.390;7.180;2023-08-12T13:43:26;20.30;96.50
36450;DHT22;22475;51.390;7.180;2023-08-12T13:45:53;20.30;96.50
36450;DHT22;22475;51.390;7.180;2023-08-12T13:48:19;20.30;96.50
36450;DHT22;22475;51.390;7.180;2023-08-12T13:50:47;20.30;96.50
36450;DHT22;22475;51.390;7.180;2023-08-12T13:53:16;20.30;96.50
36450;DHT22;22475;51.390;7.180;2023-08-12T13:55:42;20.30;96.50
36450;DHT22;22475;51.390;7.180;2023-08-12T13:58:09;20.30;96.50
36450;DHT22;22475;51.390;7.180;2023-08-12T14:00:36;20.30;96.50
36450;DHT22;22475;51.390;7.180;2023-08-12T14:03:03;20.30;96.50
36450;DHT22;22475;51.390;7.180;2023-08-12T14:05:30;20.30;96.50
36450;DHT22;22475;51.390;7.180;2023-08-12T14:07:58;20.30;96.50
36450;DHT22;22475;51.390;7.180;2023-08-12T14:10:25;20.30;96.50
36450;DHT22;22475;51.390;7.180;2023-08-12T14:12:54;20.30;96.50
36450;DHT22;22475;51.390;7.180;2023-08-12T14:15:21;20.30;96.50
36450;DHT22;22475;51.390;7.180;2023-08-12T14:17:48;20.30;96.50
36450;DHT22;22475;51.390;7.180;2023-08-12T14:20:15;20.30;96.50
36450;DHT22;22475;51.390;7.180;2023-08-12T14:22:41;20.30;96.50
36450;DHT22;22475;51.390;7.180;2023-08-12T14:25:11;20.30;96.50
36450;DHT22;22475;51.390;7.180;2023-08-12T14:27:38;20.30;96.50
36450;DHT22;22475;51.390;7.180;2023-08-12T14:30:07;20.30;96.50
36450;DHT22;22475;51.390;7.180;2023-08-12T14:32:33;20.30;96.50
36450;DHT22;22475;51.390;7.180;2023-08-12T14:35:00;20.30;96.50
36450;DHT22;22475;51.390;7.180;2023-08-12T14:37:27;20.30;96.50
36450;DHT22;22475;51.390;7.180;2023-08-12T14:39:54;20.30;96.50
36450;DHT22;22475;51.390;7.180;2023-08-12T14:42:22;20.30;96.50
36450;DHT22;22475;51.390;7.180;2023-08-12T14:44:49;20.30;96.50
36450;DHT22;22475;51.390;7.180;2023-08-12T14:47:15;20.30;96.50
36450;DHT22;22475;51.390;7.180;2023-08-12T14:49:42;20.30;96.50
36450;DHT22;22475;51.390;7.180;2023-08-12T14:52:15;20.30;96.50
36450;DHT22;22475;51.390;7.180;2023-08-12T14:54:42;20.30;96.50
36450;DHT22;22475;51.390;7.180;2023-08-12T14:57:09;20.30;96.50
36450;DHT22;22475;51.390;7.180;2023-08-12T14:59:37;20.30;96.50
36450;DHT22;22475;51.390;7.180;2023-08-12T15:02:04;20.30;96.50
36450;DHT22;22475;51.390;7.180;2023-08-12T15:04:32;20.30;96.50
36450;DHT22;22475;51.390;7.180;2023-08-12T15:06:58;20.30;96.50
36450;DHT22;22475;51.390;7.180;2023-08-12T15:09:25;20.30;96.50
36450;DHT22;22475;51.390;7.180;2023-08-12T15:11:52;20.30;96.50
36450;DHT22;22475;51.390;7.180;2023-08-12T15:14:19;20.30;96.50
36450;DHT22;22475;51.390;7.180;2023-08-12T15:16:47;20.30;96.50
36450;DHT22;22475;51.390;7.180;2023-08-12T15:19:13;20.30;96.50
36450;DHT22;22475;51.390;7.180;2023-08-12T15:21:40;20.30;96.50
36450;DHT22;22475;51.390;7.180;2023-08-12T15:24:07;20.30;96.50
36450;DHT22;22475;51.390;7.180;2023-08-12T15:26:33;20.30;96.50
36450;DHT22;22475;51.390;7.180;2023-08-12T15:29:00;20.30;96.50
36450;DHT22;22475;51.390;7.180;2023-08-12T15:31:27;20.30;96.50